Saint Clement, Missouri
Current Conditions -  °F | °C
As of 5:55 PM on Friday 28 Nov 2014 (Local Time) from KPPQ Reporting Station
Clear Clear  
Wind Chill: 37°   Ceiling: Unl
Heat Index: 42°   Visibility: 10mi
Dew Point: 34°   Wind: 8mph
Humidity: 72%   Direction: 140°SE
Pressure: 29.88"   Gusts: NA
Location:  39.321°N, 91.1912°W
Report Text: KPPQ 282355Z AUTO 14007KT 10SM CLR 06/01 A2988 RMK AO2 T00560010 10091 20051
Loading
Personal Weather Stations






























Interactive Weather Map New forecast layout! Learn more

10-Day Weather Forecast

Advertisements
Track Severe Weather on mobile